createdAt,value
2022-08-04T00:00:19.315Z,52.64
2022-08-04T00:03:20.835Z,52.60
2022-08-04T00:06:05.796Z,52.43
2022-08-04T00:08:50.229Z,52.71
2022-08-04T00:11:25.004Z,52.17
2022-08-04T00:14:02.687Z,51.86
2022-08-04T00:16:38.258Z,52.59
2022-08-04T00:19:13.968Z,52.69
2022-08-04T00:21:49.204Z,53.23
2022-08-04T00:24:19.381Z,53.38
2022-08-04T00:26:48.913Z,53.75
2022-08-04T00:29:24.205Z,53.81
2022-08-04T00:31:56.794Z,54.07
2022-08-04T00:34:32.701Z,53.76
2022-08-04T00:37:01.312Z,53.67
2022-08-04T00:39:31.793Z,52.84
2022-08-04T00:42:27.382Z,52.86
2022-08-04T00:45:11.598Z,52.67
2022-08-04T00:48:13.381Z,52.65
2022-08-04T00:50:53.524Z,53.03
2022-08-04T00:53:56.373Z,53.50
2022-08-04T00:56:54.947Z,53.06
2022-08-04T00:59:48.906Z,52.98
2022-08-04T01:02:28.223Z,53.00
2022-08-04T01:05:02.886Z,53.06
2022-08-04T01:08:03.641Z,52.32
2022-08-04T01:10:42.422Z,52.79
2022-08-04T01:13:48.468Z,52.79
2022-08-04T01:16:18.919Z,52.63
2022-08-04T01:19:05.324Z,52.78
2022-08-04T01:22:22.578Z,54.23
2022-08-04T01:25:12.305Z,53.87
2022-08-04T01:28:18.986Z,53.87
2022-08-04T01:31:03.743Z,54.23
2022-08-04T01:34:03.600Z,54.18
2022-08-04T01:36:36.410Z,54.14
2022-08-04T01:39:25.434Z,54.15
2022-08-04T01:41:58.285Z,54.32
2022-08-04T01:44:31.622Z,53.69
2022-08-04T01:47:02.368Z,53.75
2022-08-04T01:49:40.196Z,53.62
2022-08-04T01:52:10.888Z,53.48
2022-08-04T01:54:42.329Z,53.35
2022-08-04T01:57:38.666Z,53.91
2022-08-04T02:00:01.542Z,54.08
2022-08-04T02:02:51.287Z,53.73
2022-08-04T02:05:22.221Z,53.75
2022-08-04T02:08:13.445Z,53.66
2022-08-04T02:11:21.819Z,53.59
2022-08-04T02:15:01.562Z,54.04
2022-08-04T02:17:37.577Z,53.58
2022-08-04T02:26:24.953Z,53.93
2022-08-04T02:35:15.580Z,53.85
2022-08-04T02:41:00.599Z,53.06
2022-08-04T02:43:51.130Z,53.29
2022-08-04T02:49:11.618Z,53.08
2022-08-04T02:51:47.201Z,53.38
2022-08-04T02:54:31.699Z,52.85
2022-08-04T02:57:04.492Z,53.68
2022-08-04T03:00:00.760Z,53.03
2022-08-04T03:03:04.126Z,53.12
2022-08-04T03:06:01.368Z,52.94
2022-08-04T03:08:59.662Z,53.33
2022-08-04T03:12:08.934Z,53.26
2022-08-04T03:15:00.458Z,52.65
2022-08-04T03:18:08.976Z,52.88
2022-08-04T03:20:54.518Z,52.92
2022-08-04T03:23:36.324Z,52.43
2022-08-04T03:26:26.540Z,52.68
2022-08-04T03:28:57.684Z,51.90
2022-08-04T03:31:58.999Z,52.17
2022-08-04T03:34:54.920Z,52.22
2022-08-04T03:37:42.335Z,51.94
2022-08-04T03:40:47.204Z,51.96
2022-08-04T03:43:58.917Z,52.05
2022-08-04T03:47:02.036Z,51.96
2022-08-04T03:49:42.206Z,51.93
2022-08-04T03:53:09.866Z,52.30
2022-08-04T03:56:06.841Z,52.46
2022-08-04T03:59:21.392Z,52.75
2022-08-04T04:02:40.001Z,53.04
2022-08-04T04:05:43.170Z,53.19
2022-08-04T04:08:50.924Z,53.52
2022-08-04T04:11:28.424Z,53.06
2022-08-04T04:14:02.120Z,53.54
2022-08-04T04:16:52.254Z,53.43
2022-08-04T04:19:58.379Z,53.16
2022-08-04T04:22:51.652Z,53.34
2022-08-04T04:25:56.406Z,53.22
2022-08-04T04:28:43.565Z,53.68
2022-08-04T04:31:20.868Z,53.85
2022-08-04T04:33:54.734Z,53.80
2022-08-04T04:36:31.564Z,54.02
2022-08-04T04:39:26.450Z,54.40
2022-08-04T04:42:00.725Z,54.36
2022-08-04T04:44:56.765Z,54.08
2022-08-04T04:48:08.536Z,53.81
2022-08-04T04:50:43.175Z,54.12
2022-08-04T04:53:39.627Z,54.25
2022-08-04T04:56:29.498Z,53.88
2022-08-04T04:59:03.997Z,53.74
2022-08-04T05:02:25.446Z,53.66
2022-08-04T05:05:38.359Z,53.21
2022-08-04T05:08:43.893Z,53.14
2022-08-04T05:11:37.069Z,53.06
2022-08-04T05:14:48.132Z,53.03
2022-08-04T05:17:23.257Z,52.71
2022-08-04T05:20:12.178Z,52.82
2022-08-04T05:23:12.045Z,53.12
2022-08-04T05:25:59.761Z,52.59
2022-08-04T05:29:04.494Z,53.58
2022-08-04T05:31:37.005Z,52.44
2022-08-04T05:34:16.369Z,52.99
2022-08-04T05:37:07.668Z,53.34
2022-08-04T05:39:46.422Z,52.96
2022-08-04T05:42:15.984Z,52.32
2022-08-04T05:44:50.906Z,52.20
2022-08-04T05:47:22.481Z,52.14
2022-08-04T05:50:01.078Z,52.10
2022-08-04T05:52:39.633Z,51.81
2022-08-04T05:55:48.399Z,52.11
2022-08-04T05:58:11.004Z,50.98
2022-08-04T06:00:51.554Z,51.17
2022-08-04T06:03:24.511Z,51.54
2022-08-04T06:06:03.610Z,51.23
2022-08-04T06:08:48.848Z,50.80
2022-08-04T06:11:19.788Z,51.41
2022-08-04T06:14:00.549Z,51.28
2022-08-04T06:16:38.373Z,50.35
2022-08-04T06:20:00.401Z,50.19
2022-08-04T06:22:03.381Z,50.70
2022-08-04T06:24:33.590Z,50.78
2022-08-04T06:27:07.708Z,49.92
2022-08-04T06:29:39.249Z,51.04
2022-08-04T06:32:35.492Z,50.40
2022-08-04T06:35:08.462Z,50.14
2022-08-04T06:37:41.806Z,49.75
2022-08-04T06:40:31.930Z,50.29
2022-08-04T06:43:08.183Z,49.71
2022-08-04T06:45:41.815Z,50.45
2022-08-04T06:48:12.970Z,50.10
2022-08-04T06:51:26.831Z,49.56
2022-08-04T06:53:34.362Z,50.11
2022-08-04T06:56:03.416Z,49.63
2022-08-04T06:58:34.425Z,48.53
2022-08-04T07:01:03.918Z,48.43
2022-08-04T07:03:34.460Z,48.40
2022-08-04T07:06:05.694Z,48.63
2022-08-04T07:08:37.144Z,48.34
2022-08-04T07:11:06.441Z,47.45
2022-08-04T07:13:34.669Z,48.24
2022-08-04T07:16:05.616Z,48.13
2022-08-04T07:18:34.958Z,47.76
2022-08-04T07:21:03.069Z,48.03
2022-08-04T07:23:32.569Z,47.50
2022-08-04T07:26:12.693Z,46.98
2022-08-04T07:28:42.273Z,46.95
2022-08-04T07:31:33.159Z,46.84
2022-08-04T07:34:16.734Z,46.48
2022-08-04T07:36:55.668Z,46.48
2022-08-04T07:39:47.708Z,46.44
2022-08-04T07:42:20.250Z,45.99
2022-08-04T07:44:48.040Z,45.77
2022-08-04T07:47:16.574Z,46.59
2022-08-04T07:49:55.655Z,45.77
2022-08-04T07:52:27.238Z,45.38
2022-08-04T07:54:55.166Z,45.50
2022-08-04T07:57:40.381Z,45.04
2022-08-04T08:00:11.410Z,44.57
2022-08-04T08:02:44.118Z,44.35
2022-08-04T08:05:15.198Z,44.11
2022-08-04T08:07:50.909Z,44.43
2022-08-04T08:10:23.899Z,44.47
2022-08-04T08:12:53.308Z,44.50
2022-08-04T08:15:22.197Z,44.25
2022-08-04T08:17:59.617Z,43.91
2022-08-04T08:20:30.794Z,44.15
2022-08-04T08:23:00.181Z,43.84
2022-08-04T08:25:30.357Z,42.99
2022-08-04T08:27:58.088Z,43.53
2022-08-04T08:30:31.841Z,44.09
2022-08-04T08:33:15.574Z,44.69
2022-08-04T08:36:12.584Z,45.13
2022-08-04T08:39:06.530Z,45.20
2022-08-04T08:42:02.489Z,45.85
2022-08-04T08:45:02.221Z,46.50
2022-08-04T08:47:58.483Z,46.31
2022-08-04T08:50:29.536Z,46.55
2022-08-04T08:53:36.575Z,46.63
2022-08-04T08:56:31.436Z,46.47
2022-08-04T08:59:02.804Z,46.70
2022-08-04T09:01:39.530Z,46.88
2022-08-04T09:04:30.059Z,47.45
2022-08-04T09:07:31.090Z,47.72
2022-08-04T09:10:01.772Z,48.94
2022-08-04T09:12:52.716Z,49.64
2022-08-04T09:15:33.891Z,50.68
2022-08-04T09:18:19.209Z,50.94
2022-08-04T09:21:12.989Z,52.03
2022-08-04T09:23:59.686Z,52.57
2022-08-04T09:26:59.754Z,53.09
2022-08-04T09:30:06.702Z,52.64
2022-08-04T09:32:41.903Z,53.29
2022-08-04T09:35:31.287Z,53.58
2022-08-04T09:38:39.510Z,54.09
2022-08-04T09:41:40.102Z,53.97
2022-08-04T09:44:52.373Z,54.14
2022-08-04T09:47:40.743Z,54.17
2022-08-04T09:50:38.274Z,53.10
2022-08-04T09:53:33.525Z,52.66
2022-08-04T09:56:31.347Z,51.52
2022-08-04T09:59:18.047Z,51.17
2022-08-04T10:01:59.007Z,50.22
2022-08-04T10:04:31.911Z,48.45
2022-08-04T10:07:33.287Z,45.53
2022-08-04T10:10:18.242Z,44.98
2022-08-04T10:13:22.160Z,45.27
2022-08-04T10:16:02.411Z,45.68
2022-08-04T10:19:07.797Z,45.51
2022-08-04T10:21:59.616Z,43.78
2022-08-04T10:24:54.484Z,43.30
2022-08-04T10:27:41.494Z,43.56
2022-08-04T10:30:14.273Z,43.33
2022-08-04T10:33:05.670Z,42.99
2022-08-04T10:35:46.857Z,44.17
2022-08-04T10:38:27.176Z,44.22
2022-08-04T10:41:36.180Z,44.61
2022-08-04T10:44:16.449Z,44.88
2022-08-04T10:46:56.370Z,45.27
2022-08-04T10:49:37.253Z,45.93
2022-08-04T10:52:31.227Z,45.50
2022-08-04T10:55:13.551Z,45.09
2022-08-04T10:58:01.825Z,46.54
2022-08-04T11:00:31.897Z,46.02
2022-08-04T11:03:09.398Z,46.17
2022-08-04T11:05:47.285Z,46.32
2022-08-04T11:08:35.120Z,46.15
2022-08-04T11:12:01.377Z,45.70
2022-08-04T11:14:37.646Z,46.46
2022-08-04T11:17:17.707Z,47.43
2022-08-04T11:20:32.230Z,47.06
2022-08-04T11:23:14.869Z,47.24
2022-08-04T11:26:00.026Z,48.15
2022-08-04T11:29:07.878Z,49.00
2022-08-04T11:31:51.210Z,48.32
2022-08-04T11:34:26.190Z,47.56
2022-08-04T11:37:15.595Z,49.10
2022-08-04T11:39:59.598Z,48.97
2022-08-04T11:42:29.648Z,49.17
2022-08-04T11:45:16.237Z,49.76
2022-08-04T11:47:58.773Z,50.22
2022-08-04T11:50:43.738Z,50.95
2022-08-04T11:53:17.589Z,50.51
2022-08-04T11:56:08.003Z,50.18
2022-08-04T11:58:38.604Z,51.05
2022-08-04T12:01:21.842Z,50.69
2022-08-04T12:04:19.660Z,51.63
2022-08-04T12:07:30.207Z,50.87
2022-08-04T12:10:12.458Z,51.20
2022-08-04T12:12:52.503Z,50.50
2022-08-04T12:15:46.508Z,51.31
2022-08-04T12:18:41.019Z,50.00
2022-08-04T12:21:15.297Z,49.91
2022-08-04T12:23:46.063Z,50.28
2022-08-04T12:26:35.872Z,49.46
2022-08-04T12:29:10.266Z,47.27
2022-08-04T12:32:05.842Z,45.93
2022-08-04T12:35:16.016Z,46.96
2022-08-04T12:38:12.376Z,49.29
2022-08-04T12:40:49.661Z,48.88
2022-08-04T12:43:21.012Z,46.60
2022-08-04T12:45:56.066Z,46.12
2022-08-04T12:48:27.134Z,47.87
2022-08-04T12:50:58.797Z,48.34
2022-08-04T12:53:50.909Z,48.04
2022-08-04T12:56:28.207Z,46.59
2022-08-04T12:59:04.713Z,44.72
2022-08-04T13:02:08.820Z,46.13
2022-08-04T13:04:29.485Z,46.91
2022-08-04T13:07:21.583Z,46.57
2022-08-04T13:09:50.037Z,46.53
2022-08-04T13:12:32.071Z,45.17
2022-08-04T13:15:23.429Z,46.29
2022-08-04T13:17:59.181Z,46.30
2022-08-04T13:20:34.329Z,45.72
2022-08-04T13:23:14.993Z,45.79
2022-08-04T13:26:44.346Z,45.70
2022-08-04T13:28:45.122Z,46.11
2022-08-04T13:31:17.596Z,46.51
2022-08-04T13:33:50.441Z,46.27
2022-08-04T13:36:20.183Z,46.41
2022-08-04T13:38:55.575Z,47.25
2022-08-04T13:41:27.743Z,49.03
2022-08-04T13:44:17.499Z,46.22
2022-08-04T13:47:11.260Z,48.35
2022-08-04T13:50:12.130Z,48.09
2022-08-04T13:52:44.427Z,48.16
2022-08-04T13:55:21.508Z,48.78
2022-08-04T13:57:55.583Z,47.02
2022-08-04T14:00:30.041Z,47.48
2022-08-04T14:03:23.660Z,49.09
2022-08-04T14:06:14.036Z,49.30
2022-08-04T14:08:52.156Z,48.95
2022-08-04T14:12:10.643Z,49.77
2022-08-04T14:14:38.423Z,46.76
2022-08-04T14:17:20.289Z,47.38
2022-08-04T14:19:57.354Z,48.72
2022-08-04T14:22:31.002Z,46.77
2022-08-04T14:25:17.319Z,45.05
2022-08-04T14:27:48.530Z,46.15
2022-08-04T14:30:35.976Z,47.32
2022-08-04T14:34:01.403Z,48.30
2022-08-04T14:36:04.640Z,46.65
2022-08-04T14:39:00.553Z,46.42
2022-08-04T14:41:46.780Z,48.02
2022-08-04T14:44:15.759Z,49.30
2022-08-04T14:46:54.596Z,48.51
2022-08-04T14:49:24.109Z,49.59
2022-08-04T14:51:57.341Z,49.79
2022-08-04T14:54:33.413Z,50.41
2022-08-04T14:57:09.138Z,51.01
2022-08-04T15:00:00.589Z,51.07
2022-08-04T15:02:36.378Z,51.59
2022-08-04T15:06:00.010Z,51.54
2022-08-04T15:07:53.541Z,51.42
2022-08-04T15:10:21.649Z,51.47
2022-08-04T15:12:50.152Z,51.57
2022-08-04T15:15:35.781Z,52.79
2022-08-04T15:18:04.245Z,52.76
2022-08-04T15:20:32.901Z,52.48
2022-08-04T15:23:10.657Z,53.12
2022-08-04T15:25:43.445Z,53.88
2022-08-04T15:28:21.093Z,53.93
2022-08-04T15:30:53.421Z,54.72
2022-08-04T15:33:24.764Z,54.52
2022-08-04T15:36:21.932Z,54.60
2022-08-04T15:39:01.714Z,53.11
2022-08-04T15:41:46.494Z,53.88
2022-08-04T15:44:59.726Z,53.59
2022-08-04T15:47:30.717Z,54.38
2022-08-04T15:50:07.140Z,54.94
2022-08-04T15:53:00.542Z,54.74
2022-08-04T15:55:40.615Z,54.83
2022-08-04T15:58:12.119Z,54.39
2022-08-04T16:00:54.403Z,53.85
2022-08-04T16:04:00.334Z,54.21
2022-08-04T16:06:39.049Z,53.87
2022-08-04T16:09:06.756Z,53.45
2022-08-04T16:11:37.410Z,54.18
2022-08-04T16:14:07.012Z,53.13
2022-08-04T16:16:39.639Z,52.67
2022-08-04T16:19:09.139Z,52.70
2022-08-04T16:21:51.991Z,52.05
2022-08-04T16:24:39.551Z,52.06
2022-08-04T16:27:09.689Z,52.15
2022-08-04T16:29:48.638Z,52.47
2022-08-04T16:32:23.736Z,53.06
2022-08-04T16:35:18.457Z,53.43
2022-08-04T16:37:47.811Z,52.91
2022-08-04T16:40:33.824Z,53.11
2022-08-04T16:43:18.657Z,53.09
2022-08-04T16:45:50.895Z,53.07
2022-08-04T16:48:21.531Z,52.69
2022-08-04T16:50:52.539Z,52.89
2022-08-04T16:54:02.577Z,53.15
2022-08-04T16:56:15.702Z,52.94
2022-08-04T16:58:54.347Z,52.36
2022-08-04T17:01:32.927Z,52.78
2022-08-04T17:04:08.189Z,52.74
2022-08-04T17:06:38.651Z,52.62
2022-08-04T17:09:29.058Z,52.72
2022-08-04T17:12:05.562Z,52.85
2022-08-04T17:14:34.700Z,53.08
2022-08-04T17:17:02.969Z,53.11
2022-08-04T17:19:33.743Z,52.13
2022-08-04T17:22:06.311Z,52.48
2022-08-04T17:24:39.303Z,53.10
2022-08-04T17:28:10.501Z,52.86
2022-08-04T17:29:56.080Z,53.47
2022-08-04T17:32:33.331Z,53.57
2022-08-04T17:35:14.492Z,53.08
2022-08-04T17:37:53.172Z,53.87
2022-08-04T17:40:25.419Z,53.89
2022-08-04T17:44:01.221Z,54.23
2022-08-04T17:46:15.777Z,55.38
2022-08-04T17:48:57.318Z,54.92
2022-08-04T17:52:04.807Z,56.99
2022-08-04T17:54:37.312Z,56.67
2022-08-04T17:57:22.200Z,57.04
2022-08-04T17:59:59.507Z,57.88
2022-08-04T18:02:33.137Z,57.78
2022-08-04T18:05:12.293Z,58.23
2022-08-04T18:08:37.720Z,58.43
2022-08-04T18:10:57.000Z,58.95
2022-08-04T18:13:42.695Z,59.66
2022-08-04T18:19:18.946Z,60.82
2022-08-04T18:21:59.576Z,60.55
2022-08-04T18:24:35.658Z,60.49
2022-08-04T18:27:19.883Z,61.08
2022-08-04T18:29:50.255Z,61.03
2022-08-04T18:32:36.975Z,61.26
2022-08-04T18:35:23.323Z,61.35
2022-08-04T18:40:54.649Z,62.21
2022-08-04T18:43:28.053Z,62.33
2022-08-04T18:46:00.407Z,62.25
2022-08-04T18:48:36.935Z,62.31
2022-08-04T18:51:10.577Z,62.34
2022-08-04T18:53:58.884Z,63.03
2022-08-04T18:56:32.620Z,62.84
2022-08-04T18:59:10.335Z,63.07
2022-08-04T19:02:13.609Z,63.21
2022-08-04T19:04:33.994Z,63.29
2022-08-04T19:08:01.311Z,63.20
2022-08-04T19:10:03.966Z,63.24
2022-08-04T19:12:44.009Z,63.15
2022-08-04T19:15:33.987Z,63.68
2022-08-04T19:18:47.485Z,63.76
2022-08-04T19:22:00.393Z,63.59
2022-08-04T19:24:34.580Z,63.68
2022-08-04T19:27:19.973Z,62.76
2022-08-04T19:29:56.226Z,63.67
2022-08-04T19:32:48.467Z,63.70
2022-08-04T19:35:46.272Z,63.79
2022-08-04T19:38:30.826Z,63.47
2022-08-04T19:41:32.875Z,63.79
2022-08-04T19:44:34.298Z,63.34
2022-08-04T19:48:17.065Z,63.50
2022-08-04T19:50:41.204Z,62.29
2022-08-04T19:53:37.493Z,58.81
2022-08-04T19:56:29.613Z,57.88
2022-08-04T19:59:24.547Z,57.90
2022-08-04T20:02:01.203Z,58.27
2022-08-04T20:04:58.532Z,58.53
2022-08-04T20:07:37.131Z,58.79
2022-08-04T20:10:13.545Z,58.87
2022-08-04T20:12:55.639Z,59.38
2022-08-04T20:15:26.069Z,60.16
2022-08-04T20:18:07.355Z,59.99
2022-08-04T20:20:43.629Z,60.16
2022-08-04T20:23:11.293Z,60.43
2022-08-04T20:25:39.059Z,60.60
2022-08-04T20:28:25.817Z,60.67
2022-08-04T20:31:02.089Z,60.17
2022-08-04T20:33:29.821Z,60.77
2022-08-04T20:36:05.165Z,60.71
2022-08-04T20:38:42.418Z,60.84
2022-08-04T20:41:11.090Z,60.66
2022-08-04T20:43:41.544Z,60.89
2022-08-04T20:46:29.280Z,60.09
2022-08-04T20:48:59.076Z,59.71
2022-08-04T20:51:32.161Z,59.91
2022-08-04T20:54:02.868Z,59.97
2022-08-04T20:56:50.534Z,59.67
2022-08-04T20:59:20.272Z,59.40
2022-08-04T21:01:48.902Z,59.52
2022-08-04T21:04:33.136Z,59.45
2022-08-04T21:07:16.870Z,59.27
2022-08-04T21:09:50.877Z,59.30
2022-08-04T21:12:27.305Z,59.20
2022-08-04T21:15:14.119Z,58.89
2022-08-04T21:17:58.561Z,58.35
2022-08-04T21:20:33.262Z,58.18
2022-08-04T21:23:07.264Z,57.77
2022-08-04T21:25:42.494Z,57.73
2022-08-04T21:28:11.271Z,57.26
2022-08-04T21:30:54.513Z,57.12
2022-08-04T21:33:28.165Z,57.28
2022-08-04T21:36:12.485Z,57.50
2022-08-04T21:38:41.827Z,57.70
2022-08-04T21:41:24.207Z,57.42
2022-08-04T21:43:59.197Z,57.27
2022-08-04T21:46:31.295Z,57.33
2022-08-04T21:49:04.577Z,57.82
2022-08-04T21:52:00.494Z,58.25
2022-08-04T21:54:29.283Z,58.49
2022-08-04T21:57:03.480Z,59.06
2022-08-04T21:59:45.920Z,58.83
2022-08-04T22:02:17.410Z,58.34
2022-08-04T22:04:46.287Z,58.44
2022-08-04T22:07:26.284Z,58.34
2022-08-04T22:10:15.779Z,58.17
2022-08-04T22:12:56.537Z,58.26
2022-08-04T22:16:04.797Z,58.49
2022-08-04T22:18:29.507Z,57.93
2022-08-04T22:21:02.703Z,57.88
2022-08-04T22:26:26.392Z,56.97
2022-08-04T22:29:00.787Z,57.22
2022-08-04T22:31:55.981Z,53.89
2022-08-04T22:34:23.933Z,51.79
2022-08-04T22:37:12.391Z,52.48
2022-08-04T22:39:56.637Z,50.08
2022-08-04T22:42:31.684Z,51.02
2022-08-04T22:45:00.877Z,50.09
2022-08-04T22:47:33.813Z,51.66
2022-08-04T22:50:27.578Z,49.84
2022-08-04T22:52:58.041Z,52.33
2022-08-04T22:56:07.692Z,50.14
2022-08-04T22:58:20.095Z,48.16
2022-08-04T23:00:53.123Z,48.03
2022-08-04T23:03:36.913Z,47.85
2022-08-04T23:06:10.898Z,47.04
2022-08-04T23:08:43.167Z,46.58
2022-08-04T23:11:15.559Z,46.57
2022-08-04T23:13:44.408Z,46.60
2022-08-04T23:16:14.012Z,46.68
2022-08-04T23:18:48.188Z,47.17
2022-08-04T23:21:24.272Z,47.80
2022-08-04T23:24:02.204Z,47.81
2022-08-04T23:26:34.553Z,48.87
2022-08-04T23:29:03.546Z,51.71
2022-08-04T23:31:41.564Z,53.08
2022-08-04T23:34:20.577Z,53.70
2022-08-04T23:36:51.423Z,56.07
2022-08-04T23:39:20.344Z,55.71
2022-08-04T23:41:55.292Z,56.47
2022-08-04T23:44:26.740Z,56.14
2022-08-04T23:47:00.901Z,56.08
2022-08-04T23:49:43.457Z,56.87
2022-08-04T23:52:28.156Z,58.52
2022-08-04T23:55:07.454Z,57.74
2022-08-04T23:58:06.172Z,56.97
